Time;durP1;ratioP1;P1;durP2;ratioP2;P2;SDS_P1;SDS_P2;PMS_P1;PMS_P2;Temp;Humidity;BMP_temperature;BMP_pressure;BME280_temperature;BME280_humidity;BME280_pressure;Samples;Min_cycle;Max_cycle;Signal;HPM_P1;HPM_P2
2021/08/21 00:00:46;;;;;;;;;7.00;6.00;;;;;19.44;57.50;100807.03;5059045;28;45387;-63
2021/08/21 00:03:11;;;;;;;;;6.25;5.75;;;;;19.43;57.87;100810.66;5077575;27;45301;-63
2021/08/21 00:05:37;;;;;;;;;6.00;5.00;;;;;19.42;57.71;100809.81;5076702;27;45643;-62
2021/08/21 00:08:03;;;;;;;;;6.75;6.25;;;;;19.41;57.88;100808.13;5077354;27;45376;-63
2021/08/21 00:10:30;;;;;;;;;7.00;5.25;;;;;19.35;57.87;100805.91;5077356;28;45283;-64
2021/08/21 00:12:56;;;;;;;;;2.50;2.50;;;;;19.35;57.98;100805.91;5076607;28;45353;-62
2021/08/21 00:15:30;;;;;;;;;7.25;5.00;;;;;19.34;58.26;100806.00;5058624;28;47628;-65
2021/08/21 00:17:55;;;;;;;;;12.25;10.25;;;;;19.30;58.56;100797.41;5059142;28;45381;-63
2021/08/21 00:20:21;;;;;;;;;5.25;5.25;;;;;19.30;58.32;100804.53;5077126;27;45436;-62
2021/08/21 00:22:47;;;;;;;;;8.00;5.25;;;;;19.29;58.59;100803.69;5077479;27;45343;-62
2021/08/21 00:25:13;;;;;;;;;7.25;6.75;;;;;19.27;58.52;100809.13;5058669;28;47744;-62
2021/08/21 00:27:42;;;;;;;;;4.75;4.75;;;;;19.24;58.54;100800.53;5076903;28;45485;-63
2021/08/21 00:30:09;;;;;;;;;4.50;4.00;;;;;19.25;58.96;100804.88;5076908;27;45310;-63
2021/08/21 00:32:35;;;;;;;;;6.00;6.00;;;;;19.22;58.61;100802.44;5076663;27;45370;-61
2021/08/21 00:35:00;;;;;;;;;5.00;5.00;;;;;19.17;58.96;100789.44;5076363;27;46152;-63
2021/08/21 00:37:25;;;;;;;;;6.75;5.00;;;;;19.17;58.77;100783.28;5074960;28;45432;-62
2021/08/21 00:39:51;;;;;;;;;5.00;4.00;;;;;19.17;59.03;100781.44;5076719;27;45495;-62
2021/08/21 00:42:17;;;;;;;;;7.00;5.25;;;;;19.16;59.13;100790.41;5076899;28;45517;-63
2021/08/21 00:44:42;;;;;;;;;8.00;5.50;;;;;19.13;59.18;100777.31;5076665;27;46161;-62
2021/08/21 00:47:16;;;;;;;;;7.75;5.50;;;;;19.14;59.42;100780.84;5076474;28;45363;-62
2021/08/21 00:49:53;;;;;;;;;5.75;5.00;;;;;19.14;59.38;100772.84;5059546;28;45385;-63
2021/08/21 00:52:20;;;;;;;;;5.75;4.75;;;;;19.16;59.33;100773.56;5058143;28;45361;-62
2021/08/21 00:54:45;;;;;;;;;5.75;5.50;;;;;19.16;59.39;100773.56;5076150;28;46461;-63
2021/08/21 00:57:13;;;;;;;;;10.75;5.75;;;;;19.16;59.16;100776.25;5076200;28;45201;-63
2021/08/21 00:59:40;;;;;;;;;5.00;5.00;;;;;19.12;59.41;100773.78;5075141;27;45416;-60
2021/08/21 01:02:07;;;;;;;;;8.00;6.75;;;;;19.14;59.14;100776.34;5074997;27;45309;-60
2021/08/21 01:04:35;;;;;;;;;8.25;7.75;;;;;19.15;59.17;100774.53;5076348;27;46223;-61
2021/08/21 01:07:15;;;;;;;;;5.00;5.00;;;;;19.14;59.53;100778.16;5076455;27;45287;-62
2021/08/21 01:09:42;;;;;;;;;7.25;5.50;;;;;19.15;59.58;100777.19;5076281;27;45377;-61
2021/08/21 01:12:11;;;;;;;;;7.00;5.00;;;;;19.11;59.36;100774.75;5076488;28;45279;-61
2021/08/21 01:14:37;;;;;;;;;6.00;5.00;;;;;19.09;59.79;100774.03;5076249;28;46742;-62
2021/08/21 01:17:06;;;;;;;;;7.25;6.00;;;;;19.10;59.73;100770.41;5076590;28;45259;-63
2021/08/21 01:19:37;;;;;;;;;7.25;5.50;;;;;19.03;59.45;100758.44;5076945;28;45332;-64
2021/08/21 01:22:05;;;;;;;;;6.00;6.00;;;;;19.05;59.51;100763.69;5075500;27;45547;-62
2021/08/21 01:24:30;;;;;;;;;6.50;5.25;;;;;19.02;59.92;100767.41;5075152;27;46346;-62
2021/08/21 01:26:57;;;;;;;;;7.00;6.00;;;;;18.98;59.58;100774.78;5076066;27;45391;-63
2021/08/21 01:29:23;;;;;;;;;7.50;6.50;;;;;18.94;60.00;100769.75;5058131;27;45429;-62
2021/08/21 01:31:50;;;;;;;;;8.00;8.00;;;;;18.92;60.34;100763.69;5076213;28;45364;-62
2021/08/21 01:34:16;;;;;;;;;6.00;6.00;;;;;18.88;60.30;100767.53;5075638;28;46395;-63
2021/08/21 01:36:44;;;;;;;;;5.50;5.00;;;;;18.90;60.14;100768.28;5075943;28;45260;-64
2021/08/21 01:39:11;;;;;;;;;5.75;5.75;;;;;18.86;60.06;100765.00;5057584;28;45283;-62
2021/08/21 01:41:37;;;;;;;;;5.75;5.00;;;;;18.90;59.76;100763.81;5076064;27;45362;-62
2021/08/21 01:44:10;;;;;;;;;6.75;5.00;;;;;18.93;60.52;100762.72;5076066;28;45906;-62
2021/08/21 01:46:36;;;;;;;;;6.75;5.25;;;;;18.95;60.55;100761.66;5076171;28;45830;-62
2021/08/21 01:49:03;;;;;;;;;5.25;4.50;;;;;18.97;60.54;100759.75;5076054;27;45361;-63
2021/08/21 01:51:30;;;;;;;;;5.75;5.00;;;;;18.97;60.63;100759.75;5075797;27;45373;-62
2021/08/21 01:53:57;;;;;;;;;5.25;5.25;;;;;18.98;60.29;100758.81;5075360;27;45402;-62
2021/08/21 01:56:24;;;;;;;;;6.00;6.00;;;;;18.97;60.41;100756.22;5075499;27;45231;-62
2021/08/21 01:58:50;;;;;;;;;7.50;6.00;;;;;18.96;60.29;100759.81;5075549;28;45449;-62
2021/08/21 02:01:15;;;;;;;;;14.00;10.75;;;;;18.97;60.49;100756.22;5075737;28;45426;-63
2021/08/21 02:03:42;;;;;;;;;9.00;7.50;;;;;18.95;60.45;100758.13;5075422;27;45332;-65
2021/08/21 02:06:09;;;;;;;;;8.00;6.00;;;;;18.93;60.60;100750.25;5075344;28;45486;-62
2021/08/21 02:08:34;;;;;;;;;8.25;7.00;;;;;18.90;60.48;100741.63;5075897;27;45323;-63
2021/08/21 02:11:00;;;;;;;;;6.75;6.75;;;;;18.91;60.27;100740.66;5075550;28;45405;-63
2021/08/21 02:13:25;;;;;;;;;6.75;6.25;;;;;18.88;60.66;100743.53;5075272;27;46176;-64
2021/08/21 02:15:50;;;;;;;;;7.50;7.00;;;;;18.89;60.78;100747.91;5075372;28;45372;-63
2021/08/21 02:18:16;;;;;;;;;7.00;7.00;;;;;18.87;60.69;100744.50;5075378;27;45291;-63
2021/08/21 02:20:41;;;;;;;;;6.50;6.00;;;;;18.84;60.48;100732.28;5075729;27;45299;-63
2021/08/21 02:23:07;;;;;;;;;15.00;14.00;;;;;18.86;60.68;100732.16;5057111;28;48029;-61
2021/08/21 02:25:33;;;;;;;;;9.00;8.75;;;;;18.84;60.71;100741.09;5056947;27;45447;-63
2021/08/21 02:28:06;;;;;;;;;13.50;8.75;;;;;18.79;60.31;100732.59;5075357;28;45350;-63
2021/08/21 02:30:35;;;;;;;;;7.75;6.00;;;;;18.79;60.44;100742.41;5075363;28;45392;-62
2021/08/21 02:33:00;;;;;;;;;5.00;4.50;;;;;18.76;60.95;100747.97;5074944;28;45452;-62
2021/08/21 02:35:25;;;;;;;;;6.00;6.00;;;;;18.74;60.88;100737.41;5075103;27;45278;-62
2021/08/21 02:37:51;;;;;;;;;8.25;7.00;;;;;18.74;60.84;100734.75;5077214;27;45321;-62
2021/08/21 02:40:16;;;;;;;;;6.00;6.00;;;;;18.74;60.52;100741.91;5078994;27;45434;-62
2021/08/21 02:42:42;;;;;;;;;8.00;5.00;;;;;18.71;60.75;100729.63;5078710;27;45439;-61
2021/08/21 02:45:08;;;;;;;;;9.75;8.00;;;;;18.71;60.67;100726.13;5079072;27;45343;-62
2021/08/21 02:47:33;;;;;;;;;5.75;5.00;;;;;18.69;60.70;100723.56;5078677;27;45358;-63
2021/08/21 02:49:58;;;;;;;;;5.75;5.75;;;;;18.68;61.08;100735.19;5078754;27;45877;-62
2021/08/21 02:52:24;;;;;;;;;6.00;6.00;;;;;18.75;61.21;100736.44;5060076;27;46151;-63
2021/08/21 02:54:49;;;;;;;;;9.75;8.25;;;;;18.76;60.92;100724.81;5078350;27;45234;-63
2021/08/21 02:57:14;;;;;;;;;7.25;6.00;;;;;18.79;60.82;100729.09;5078581;27;45273;-61
2021/08/21 02:59:40;;;;;;;;;6.00;6.00;;;;;18.84;61.01;100727.78;5078794;28;45687;-61
2021/08/21 03:02:07;;;;;;;;;8.00;5.75;;;;;18.86;60.57;100727.69;5078477;27;45732;-62
2021/08/21 03:04:32;;;;;;;;;7.25;6.25;;;;;18.86;60.49;100726.81;5078356;27;45344;-63
2021/08/21 03:06:57;;;;;;;;;10.00;6.25;;;;;18.86;60.55;100724.16;5077987;28;45746;-63
2021/08/21 03:09:23;;;;;;;;;6.50;5.00;;;;;18.87;61.04;100728.53;5078350;28;45647;-64
2021/08/21 03:11:48;;;;;;;;;6.00;6.00;;;;;18.89;61.12;100729.25;5076832;27;47783;-62
2021/08/21 03:14:13;;;;;;;;;5.00;5.00;;;;;18.90;60.87;100725.63;5077999;28;45520;-62
2021/08/21 03:16:39;;;;;;;;;7.50;6.50;;;;;18.90;60.62;100723.84;5078502;28;45332;-62
2021/08/21 03:19:05;;;;;;;;;7.25;6.00;;;;;18.93;60.71;100728.94;5060439;28;45562;-63
2021/08/21 03:21:30;;;;;;;;;7.75;7.75;;;;;18.94;60.92;100719.09;5078177;28;45370;-62
2021/08/21 03:23:55;;;;;;;;;6.00;6.00;;;;;18.95;60.99;100731.47;5078381;27;45327;-63
2021/08/21 03:26:21;;;;;;;;;5.75;5.00;;;;;18.91;61.01;100722.88;5078530;27;45394;-64
2021/08/21 03:28:46;;;;;;;;;5.00;5.00;;;;;18.95;60.96;100726.13;5078411;27;45617;-66
2021/08/21 03:31:12;;;;;;;;;8.00;8.00;;;;;18.93;61.17;100718.28;5078146;27;46188;-62
2021/08/21 03:33:37;;;;;;;;;8.00;5.50;;;;;18.93;61.02;100712.94;5060246;28;45456;-64
2021/08/21 03:36:03;;;;;;;;;6.75;6.75;;;;;18.87;61.27;100720.53;5060109;28;45335;-62
2021/08/21 03:38:28;;;;;;;;;9.00;7.25;;;;;18.87;60.82;100717.84;5078173;27;45360;-63
2021/08/21 03:40:54;;;;;;;;;7.00;7.00;;;;;18.83;61.22;100717.25;5077945;27;45329;-62
2021/08/21 03:43:19;;;;;;;;;7.00;7.00;;;;;18.77;61.22;100713.19;5077996;28;45248;-62
2021/08/21 03:45:45;;;;;;;;;6.00;6.00;;;;;18.76;61.16;100711.50;5059865;28;45299;-63
2021/08/21 03:48:11;;;;;;;;;6.25;6.25;;;;;18.74;60.98;100717.91;5077536;28;45355;-63
2021/08/21 03:50:37;;;;;;;;;10.00;8.00;;;;;18.67;61.75;100702.38;5077945;28;45383;-62
2021/08/21 03:53:03;;;;;;;;;7.00;5.25;;;;;18.65;61.63;100703.44;5077927;27;45443;-63
2021/08/21 03:55:28;;;;;;;;;16.25;13.75;;;;;18.61;61.39;100702.84;5077907;27;45390;-63
2021/08/21 03:57:54;;;;;;;;;8.00;8.00;;;;;18.57;61.72;100706.69;5078052;27;45501;-62
2021/08/21 04:00:19;;;;;;;;;6.00;6.00;;;;;18.53;62.03;100706.03;5077702;27;46312;-63
2021/08/21 04:02:45;;;;;;;;;7.75;5.75;;;;;18.49;62.14;100699.22;5077539;27;45302;-60
2021/08/21 04:05:10;;;;;;;;;9.00;9.00;;;;;18.46;62.09;100698.56;5078015;27;45351;-63
2021/08/21 04:07:35;;;;;;;;;6.50;6.50;;;;;18.41;62.08;100701.59;5076129;27;45349;-62
2021/08/21 04:10:03;;;;;;;;;7.75;7.25;;;;;18.37;62.54;100692.94;5076132;27;46350;-63
2021/08/21 04:12:28;;;;;;;;;7.00;7.00;;;;;18.34;62.64;100695.00;5059195;28;45473;-60
2021/08/21 04:14:54;;;;;;;;;9.00;9.00;;;;;18.33;62.80;100698.63;5077658;27;45302;-61
2021/08/21 04:17:19;;;;;;;;;10.50;9.00;;;;;18.22;62.61;100686.06;5059306;28;45677;-62
2021/08/21 04:19:44;;;;;;;;;6.75;6.75;;;;;18.22;63.09;100686.06;5077264;27;46386;-62
2021/08/21 04:22:10;;;;;;;;;7.50;7.50;;;;;18.23;63.10;100693.09;5077475;27;45243;-61
2021/08/21 04:24:35;;;;;;;;;8.50;7.75;;;;;18.18;63.21;100688.09;5077519;27;45270;-61
2021/08/21 04:27:01;;;;;;;;;7.50;6.00;;;;;18.16;63.38;100691.81;5059424;27;45719;-66
2021/08/21 04:29:26;;;;;;;;;8.75;5.75;;;;;18.14;63.54;100689.28;5077119;28;46355;-63
2021/08/21 04:31:52;;;;;;;;;8.25;6.50;;;;;18.12;63.60;100691.19;5076938;28;45256;-64
2021/08/21 04:34:17;;;;;;;;;9.25;6.75;;;;;18.09;63.63;100689.59;5077211;27;45264;-62
2021/08/21 04:36:42;;;;;;;;;9.00;9.00;;;;;18.08;64.34;100685.22;5077536;27;45165;-61
2021/08/21 04:39:08;;;;;;;;;6.00;6.00;;;;;18.08;64.17;100679.91;5058481;28;48219;-62
2021/08/21 04:41:33;;;;;;;;;7.00;5.75;;;;;18.08;63.91;100681.72;5076905;28;45339;-62
2021/08/21 04:43:59;;;;;;;;;6.25;5.50;;;;;18.07;64.00;100682.69;5076840;28;45854;-62
2021/08/21 04:46:24;;;;;;;;;7.00;6.00;;;;;18.07;64.49;100682.69;5077134;27;45319;-61
2021/08/21 04:48:50;;;;;;;;;7.50;6.25;;;;;18.00;64.40;100678.69;5076512;28;46190;-61
2021/08/21 04:51:15;;;;;;;;;7.00;7.00;;;;;18.05;64.32;100697.91;5077130;28;45941;-62
2021/08/21 04:53:41;;;;;;;;;7.00;7.00;;;;;18.03;64.59;100686.53;5077224;27;45449;-62
2021/08/21 04:56:06;;;;;;;;;6.75;5.75;;;;;18.03;64.44;100694.50;5077055;27;45634;-62
2021/08/21 04:58:32;;;;;;;;;6.25;6.25;;;;;18.01;64.68;100693.72;5076168;27;45455;-62
2021/08/21 05:00:57;;;;;;;;;6.25;6.00;;;;;17.98;64.90;100694.78;5076582;28;45314;-61
2021/08/21 05:03:22;;;;;;;;;6.00;6.00;;;;;18.02;64.57;100688.31;5076721;28;45410;-62
2021/08/21 05:05:48;;;;;;;;;8.00;7.50;;;;;18.01;64.59;100686.63;5076786;27;45617;-61
2021/08/21 05:08:15;;;;;;;;;7.25;6.25;;;;;18.01;65.05;100694.59;5076815;28;46598;-63
2021/08/21 05:10:40;;;;;;;;;6.00;6.00;;;;;18.03;64.82;100700.66;5076516;27;45342;-63
2021/08/21 05:13:05;;;;;;;;;6.00;6.00;;;;;17.98;64.96;100693.91;5076441;27;45326;-61
2021/08/21 05:15:33;;;;;;;;;8.25;6.25;;;;;18.07;64.75;100710.16;5076581;28;45299;-62
2021/08/21 05:18:00;;;;;;;;;5.25;5.25;;;;;18.10;64.97;100699.28;5076176;27;45871;-61
2021/08/21 05:20:29;;;;;;;;;7.50;7.50;;;;;18.18;64.57;100700.53;5075943;27;45491;-62
2021/08/21 05:25:49;;;;;;;;;6.75;6.25;;;;;18.34;64.58;100697.66;5062953;27;45448;-61
2021/08/21 05:28:16;;;;;;;;;7.25;7.25;;;;;18.44;64.32;100690.72;5057925;28;47806;-63
2021/08/21 05:30:42;;;;;;;;;7.50;7.50;;;;;18.53;64.29;100692.72;5076135;27;45433;-62
2021/08/21 05:33:13;;;;;;;;;7.25;7.25;;;;;18.58;63.72;100687.06;5076251;28;45417;-62
2021/08/21 05:35:39;;;;;;;;;8.00;7.00;;;;;18.67;63.82;100707.72;5076644;28;45437;-63
2021/08/21 05:38:06;;;;;;;;;10.50;7.75;;;;;18.75;63.80;100700.97;5075798;27;45370;-63
2021/08/21 05:40:32;;;;;;;;;8.00;8.00;;;;;18.81;63.27;100708.50;5076147;27;45267;-64
2021/08/21 05:42:58;;;;;;;;;9.25;9.00;;;;;18.86;63.04;100706.38;5076474;28;45374;-63
2021/08/21 05:45:23;;;;;;;;;9.50;8.00;;;;;18.89;63.31;100710.59;5057747;27;45517;-61
2021/08/21 05:47:49;;;;;;;;;6.75;6.75;;;;;18.90;63.05;100705.19;5075414;28;45419;-62
2021/08/21 05:50:14;;;;;;;;;6.00;6.00;;;;;18.93;62.83;100712.06;5075897;28;45462;-63
2021/08/21 05:52:40;;;;;;;;;16.25;16.25;;;;;18.94;63.08;100711.13;5075718;27;45260;-62
2021/08/21 05:55:06;;;;;;;;;8.75;8.00;;;;;18.99;62.81;100706.31;5075892;28;45405;-62
2021/08/21 05:57:31;;;;;;;;;9.00;7.50;;;;;19.05;62.96;100715.69;5075150;27;46435;-62
2021/08/21 05:59:56;;;;;;;;;11.75;9.00;;;;;18.86;62.67;100682.38;5056931;28;45433;-63
2021/08/21 06:02:22;;;;;;;;;14.50;13.75;;;;;19.12;62.68;100723.13;5075295;27;45448;-62
2021/08/21 06:04:48;;;;;;;;;7.50;7.00;;;;;19.15;62.23;100716.72;5075701;28;45298;-64
2021/08/21 06:07:13;;;;;;;;;8.25;7.25;;;;;19.21;62.08;100721.59;5056615;28;48020;-62
2021/08/21 06:09:38;;;;;;;;;12.00;9.00;;;;;19.27;62.20;100714.97;5075083;27;45256;-62
2021/08/21 06:12:04;;;;;;;;;7.00;6.50;;;;;19.32;62.02;100712.78;5074589;28;45259;-64
2021/08/21 06:14:30;;;;;;;;;9.00;7.50;;;;;19.32;62.08;100709.25;5057415;27;45684;-63
2021/08/21 06:16:55;;;;;;;;;10.00;9.00;;;;;19.37;62.34;100715.97;5075233;28;46508;-63
2021/08/21 06:19:20;;;;;;;;;7.75;7.25;;;;;19.43;62.30;100714.63;5075149;28;45350;-63
2021/08/21 06:21:46;;;;;;;;;8.50;8.50;;;;;19.48;61.52;100717.81;5075805;28;45360;-62
2021/08/21 06:24:11;;;;;;;;;7.75;7.75;;;;;19.49;61.76;100708.84;5075638;28;45207;-64
2021/08/21 06:26:38;;;;;;;;;10.00;9.00;;;;;19.54;61.76;100711.16;5057028;28;47342;-63
2021/08/21 06:29:03;;;;;;;;;13.00;10.00;;;;;19.61;61.71;100715.06;5073578;28;45412;-62
2021/08/21 06:31:29;;;;;;;;;9.50;9.50;;;;;19.64;61.05;100716.66;5075218;28;45465;-62
2021/08/21 06:33:54;;;;;;;;;10.00;10.00;;;;;19.66;61.30;100718.22;5057264;28;45404;-61
2021/08/21 06:36:20;;;;;;;;;10.25;10.00;;;;;19.74;61.08;100716.78;5075075;27;46368;-63
2021/08/21 06:38:45;;;;;;;;;12.00;9.50;;;;;19.78;61.22;100710.25;5073800;28;45434;-62
2021/08/21 06:41:11;;;;;;;;;11.50;11.25;;;;;19.87;60.97;100706.03;5074900;28;45295;-65
2021/08/21 06:43:36;;;;;;;;;9.50;9.00;;;;;19.93;60.55;100706.41;5074951;28;45260;-62
2021/08/21 06:46:02;;;;;;;;;9.25;9.00;;;;;19.99;60.40;100707.78;5056277;28;47948;-63
2021/08/21 06:48:29;;;;;;;;;10.00;10.00;;;;;20.02;60.67;100706.66;5056201;28;45595;-62
2021/08/21 06:50:54;;;;;;;;;14.00;11.75;;;;;20.07;60.27;100705.34;5074793;27;45265;-61
2021/08/21 06:53:29;;;;;;;;;9.25;8.75;;;;;20.14;60.46;100695.00;5075163;28;45232;-66
2021/08/21 06:55:54;;;;;;;;;13.75;9.50;;;;;20.23;59.84;100696.97;5074825;28;45321;-64
2021/08/21 06:58:20;;;;;;;;;14.75;11.25;;;;;20.31;60.11;100698.19;5074602;27;45244;-64
2021/08/21 07:00:45;;;;;;;;;8.50;8.00;;;;;20.38;59.95;100686.88;5075072;27;45289;-65
2021/08/21 07:03:11;;;;;;;;;10.00;10.00;;;;;20.51;59.42;100688.56;5074792;28;45311;-63
2021/08/21 07:05:36;;;;;;;;;11.50;8.00;;;;;20.62;59.73;100687.69;5074316;28;45481;-62
2021/08/21 07:08:02;;;;;;;;;9.50;9.00;;;;;20.76;59.02;100692.78;5073120;27;45490;-63
2021/08/21 07:10:27;;;;;;;;;9.50;9.50;;;;;20.87;58.93;100692.78;5074655;27;45453;-63
2021/08/21 07:12:53;;;;;;;;;10.50;7.25;;;;;21.00;58.51;100689.06;5074882;27;45497;-63
2021/08/21 07:15:18;;;;;;;;;8.25;8.25;;;;;21.12;58.29;100682.69;5056656;28;45383;-61
2021/08/21 07:17:43;;;;;;;;;10.00;9.25;;;;;21.31;57.88;100695.41;5074344;28;45383;-61
2021/08/21 07:20:09;;;;;;;;;8.50;7.50;;;;;21.40;57.74;100698.28;5074414;28;45481;-60
2021/08/21 07:22:35;;;;;;;;;9.00;7.25;;;;;21.44;57.58;100697.03;5076279;27;45388;-62
2021/08/21 07:25:00;;;;;;;;;10.00;8.00;;;;;21.48;57.38;100698.47;5077837;27;45426;-61
2021/08/21 07:27:25;;;;;;;;;9.00;8.00;;;;;21.56;57.33;100705.88;5077738;27;45371;-62
2021/08/21 07:29:51;;;;;;;;;7.75;7.75;;;;;21.59;56.82;100710.94;5078196;28;45459;-62
2021/08/21 07:32:16;;;;;;;;;10.25;10.25;;;;;21.67;57.05;100713.00;5078016;28;45584;-63
2021/08/21 07:34:42;;;;;;;;;11.00;8.25;;;;;21.73;56.76;100713.34;5076169;27;46533;-62
2021/08/21 07:37:08;;;;;;;;;7.00;7.00;;;;;21.76;56.67;100711.38;5076270;28;45426;-65
2021/08/21 07:39:33;;;;;;;;;9.50;8.00;;;;;21.86;56.55;100715.81;5077848;27;45398;-63
2021/08/21 07:41:59;;;;;;;;;10.25;9.25;;;;;21.98;56.24;100721.91;5077830;27;45497;-64
2021/08/21 07:44:24;;;;;;;;;8.00;8.00;;;;;22.10;55.65;100719.16;5077324;27;45306;-64
2021/08/21 07:46:50;;;;;;;;;12.25;7.50;;;;;22.17;55.74;100720.31;5077713;27;45354;-63
2021/08/21 07:49:15;;;;;;;;;8.00;8.00;;;;;22.26;55.51;100716.81;5077845;28;45276;-64
2021/08/21 07:51:41;;;;;;;;;10.75;8.00;;;;;22.37;55.16;100712.38;5078214;28;45158;-64
2021/08/21 07:54:06;;;;;;;;;8.25;8.25;;;;;22.47;54.99;100721.34;5077340;28;45482;-65
2021/08/21 07:56:31;;;;;;;;;3.00;3.00;;;;;22.55;55.32;100707.22;5077680;28;45231;-63
2021/08/21 07:58:57;;;;;;;;;8.75;8.75;;;;;22.67;54.75;100708.81;5077606;28;45255;-64
2021/08/21 08:01:22;;;;;;;;;7.75;7.25;;;;;22.75;54.09;100703.59;5059663;28;45241;-65
2021/08/21 08:03:48;;;;;;;;;8.25;8.25;;;;;22.83;54.19;100700.25;5075794;27;45496;-65
2021/08/21 08:06:13;;;;;;;;;10.25;10.00;;;;;22.96;54.14;100709.84;5058621;28;45307;-64
2021/08/21 08:08:38;;;;;;;;;9.75;7.25;;;;;23.02;53.56;100706.63;5077486;27;45280;-64
2021/08/21 08:11:04;;;;;;;;;9.50;8.75;;;;;23.11;53.89;100708.44;5077678;27;45445;-63
2021/08/21 08:13:29;;;;;;;;;13.00;11.00;;;;;23.17;52.93;100707.06;5077249;27;45328;-65
2021/08/21 08:15:55;;;;;;;;;7.75;7.50;;;;;23.21;53.49;100713.81;5077795;27;45439;-64
2021/08/21 08:18:20;;;;;;;;;9.75;9.25;;;;;23.27;52.97;100713.28;5077732;27;45409;-65
2021/08/21 08:20:46;;;;;;;;;7.25;7.25;;;;;23.34;52.88;100716.28;5076274;27;45516;-64
2021/08/21 08:23:12;;;;;;;;;7.00;7.00;;;;;23.46;52.87;100711.59;5077060;27;45983;-65
2021/08/21 08:25:38;;;;;;;;;11.00;9.75;;;;;23.57;52.69;100706.06;5077082;27;45387;-63
2021/08/21 08:28:04;;;;;;;;;11.00;7.75;;;;;23.75;52.64;100713.38;5077031;27;45331;-64
2021/08/21 08:30:29;;;;;;;;;8.00;7.00;;;;;23.88;52.04;100708.56;5077229;28;45385;-65
2021/08/21 08:32:55;;;;;;;;;10.50;9.50;;;;;23.95;52.17;100699.91;5076879;28;45501;-64
2021/08/21 08:35:20;;;;;;;;;9.50;9.50;;;;;24.11;51.73;100699.28;5076515;27;45296;-64
2021/08/21 08:37:46;;;;;;;;;9.00;9.00;;;;;24.27;51.25;100701.38;5076832;27;45161;-66
2021/08/21 08:40:12;;;;;;;;;12.25;11.00;;;;;24.41;50.92;100698.19;5076912;27;45516;-63
2021/08/21 08:42:42;;;;;;;;;10.50;9.00;;;;;24.57;50.81;100704.75;5076080;27;46544;-63
2021/08/21 08:45:12;;;;;;;;;18.50;17.00;;;;;24.61;50.06;100701.63;5076415;28;45329;-66
2021/08/21 08:47:38;;;;;;;;;7.50;7.50;;;;;24.63;50.47;100710.38;5058995;28;45350;-65
2021/08/21 08:50:11;;;;;;;;;9.75;8.00;;;;;24.67;50.22;100702.00;5075036;27;45453;-62
2021/08/21 08:52:36;;;;;;;;;9.75;8.00;;;;;24.69;49.82;100700.84;5075951;28;46432;-62
2021/08/21 08:55:04;;;;;;;;;12.25;12.25;;;;;24.61;50.38;100707.00;5057585;28;45299;-60
2021/08/21 08:57:41;;;;;;;;;12.75;12.75;;;;;24.70;49.76;100707.91;5076387;27;45447;-61
2021/08/21 09:00:10;;;;;;;;;14.00;12.75;;;;;24.74;50.42;100719.25;5076482;28;45344;-62
2021/08/21 09:02:50;;;;;;;;;7.75;7.25;;;;;24.85;49.96;100710.97;5076114;27;45559;-61
2021/08/21 09:05:18;;;;;;;;;11.00;7.00;;;;;24.93;49.70;100716.44;5075707;27;45345;-64
2021/08/21 09:07:49;;;;;;;;;15.00;8.75;;;;;25.01;49.16;100709.44;5075639;28;45553;-61
2021/08/21 09:10:20;;;;;;;;;11.75;10.00;;;;;25.12;49.66;100716.44;5075902;27;45509;-61
2021/08/21 09:13:08;;;;;;;;;8.50;6.75;;;;;25.19;49.46;100718.34;5075882;28;46664;-63
2021/08/21 09:15:37;;;;;;;;;7.00;7.00;;;;;25.24;49.12;100723.28;5075839;27;45513;-59
2021/08/21 09:18:02;;;;;;;;;8.75;7.75;;;;;25.30;48.78;100722.66;5076110;27;45429;-65
2021/08/21 09:20:28;;;;;;;;;8.25;7.50;;;;;25.35;48.95;100720.34;5068647;27;45422;-61
2021/08/21 09:23:16;;;;;;;;;10.25;8.25;;;;;25.47;48.38;100718.31;5063092;27;46304;-62
2021/08/21 09:25:42;;;;;;;;;8.00;7.00;;;;;25.60;48.46;100719.75;5075015;28;45454;-66
2021/08/21 09:28:19;;;;;;;;;8.25;7.00;;;;;25.72;48.19;100721.16;5074028;27;45321;-63
2021/08/21 09:30:46;;;;;;;;;10.75;8.50;;;;;25.77;47.83;100713.47;5073178;28;45482;-65
2021/08/21 09:33:15;;;;;;;;;7.00;6.25;;;;;25.85;47.77;100726.13;5074655;27;46143;-63
2021/08/21 09:35:40;;;;;;;;;7.00;5.50;;;;;25.91;47.67;100720.09;5056188;28;45452;-65
2021/08/21 09:38:06;;;;;;;;;8.75;7.00;;;;;26.00;47.40;100728.25;5069702;27;45440;-72
2021/08/21 09:40:34;;;;;;;;;8.50;8.00;;;;;26.09;47.26;100721.91;5074971;27;45609;-62
2021/08/21 09:43:01;;;;;;;;;9.00;8.75;;;;;26.21;47.18;100719.78;5074323;27;45625;-61
2021/08/21 09:45:26;;;;;;;;;8.00;8.00;;;;;26.28;46.89;100718.13;5073597;28;45418;-66
2021/08/21 09:48:04;;;;;;;;;12.50;12.50;;;;;26.29;47.07;100710.91;5088665;27;45973;-64
2021/08/21 09:50:39;;;;;;;;;9.75;9.75;;;;;26.38;46.81;100708.06;5074432;28;45582;-60
2021/08/21 09:53:06;;;;;;;;;9.00;9.00;;;;;26.57;46.61;100700.72;5071133;27;46563;-64
2021/08/21 09:55:33;;;;;;;;;9.75;9.25;;;;;26.68;46.34;100695.03;5055250;28;45484;-63
2021/08/21 09:58:06;;;;;;;;;9.25;8.00;;;;;26.84;46.19;100693.41;5074624;28;45425;-68
2021/08/21 10:00:35;;;;;;;;;22.75;21.50;;;;;26.97;46.19;100685.66;5074551;28;45469;-69
2021/08/21 10:03:03;;;;;;;;;20.00;17.25;;;;;27.12;45.93;100685.84;5075296;28;46703;-63
2021/08/21 10:05:28;;;;;;;;;333.00;297.50;;;;;27.23;46.56;100681.94;5073568;28;45434;-69
2021/08/21 10:10:28;;;;;;;;;77.50;68.50;;;;;27.47;45.47;100696.44;5075300;28;45246;-58
2021/08/21 10:12:58;;;;;;;;;321.50;284.00;;;;;27.50;46.97;100695.31;5074922;28;47231;-55
2021/08/21 10:15:25;;;;;;;;;212.75;188.75;;;;;27.61;46.75;100694.13;5056801;28;45337;-56
2021/08/21 10:17:52;;;;;;;;;35.00;30.75;;;;;27.75;45.72;100688.00;5073105;28;45465;-60
2021/08/21 10:20:17;;;;;;;;;75.67;63.67;;;;;27.83;45.42;100688.00;5072520;28;45349;-60
2021/08/21 10:22:44;;;;;;;;;375.00;332.75;;;;;27.99;47.27;100694.38;5071765;28;45442;-57
2021/08/21 10:25:11;;;;;;;;;254.25;220.75;;;;;28.16;46.14;100697.91;5056585;28;46375;-58
2021/08/21 10:27:43;;;;;;;;;88.00;78.25;;;;;28.28;46.38;100698.34;5074086;28;45364;-58
2021/08/21 10:30:09;;;;;;;;;311.00;278.75;;;;;28.42;46.51;100704.88;5073727;28;45474;-59
2021/08/21 10:32:39;;;;;;;;;262.25;228.75;;;;;28.54;45.80;100699.91;5073818;28;46151;-63
2021/08/21 10:35:06;;;;;;;;;256.25;229.75;;;;;28.63;45.74;100692.59;5074781;28;45520;-62
2021/08/21 10:37:32;;;;;;;;;148.00;127.50;;;;;28.71;45.04;100693.41;5074990;28;45374;-62
2021/08/21 10:39:58;;;;;;;;;166.25;144.75;;;;;28.85;45.35;100685.56;5075979;28;45540;-61
2021/08/21 10:42:30;;;;;;;;;163.75;148.00;;;;;28.96;45.27;100687.84;5075021;28;46699;-65
2021/08/21 10:44:58;;;;;;;;;141.50;130.50;;;;;29.06;45.05;100689.47;5075160;28;45462;-60
2021/08/21 10:47:38;;;;;;;;;150.25;133.75;;;;;29.06;43.31;100693.00;5074360;28;45503;-60
2021/08/21 10:50:15;;;;;;;;;65.00;51.00;;;;;29.10;44.36;100688.06;5074834;28;45396;-69
2021/08/21 10:52:44;;;;;;;;;12.75;12.50;;;;;29.10;42.32;100690.78;5056530;28;45680;-69
2021/08/21 10:55:19;;;;;;;;;350.25;315.00;;;;;29.17;44.26;100688.19;5055809;28;45240;-67
2021/08/21 10:57:58;;;;;;;;;219.00;185.00;;;;;29.34;44.17;100695.16;5077040;28;45253;-67
2021/08/21 11:00:39;;;;;;;;;15.25;13.75;;;;;29.50;41.98;100693.34;5060325;28;45526;-67
2021/08/21 11:03:08;;;;;;;;;167.50;151.00;;;;;29.59;41.93;100675.97;5078084;28;46703;-69
2021/08/21 11:05:55;;;;;;;;;151.25;136.00;;;;;29.77;43.28;100680.19;5078018;28;45358;-62
2021/08/21 11:08:24;;;;;;;;;76.75;62.00;;;;;29.72;41.77;100680.78;5077690;28;45386;-74
2021/08/21 11:11:30;;;;;;;;;55.50;42.75;;;;;29.73;41.99;100683.28;5059305;28;45313;-62
2021/08/21 11:14:00;;;;;;;;;55.33;44.67;;;;;29.82;42.06;100678.63;5076875;28;47118;-62
2021/08/21 11:19:27;;;;;;;;;112.00;99.75;;;;;29.97;42.35;100683.19;5077627;28;45441;-69
2021/08/21 11:22:15;;;;;;;;;93.67;83.00;;;;;30.08;40.53;100679.19;5078141;28;45563;-66
2021/08/21 11:24:52;;;;;;;;;63.50;50.25;;;;;30.07;42.04;100667.50;5077395;28;45417;-65
2021/08/21 11:27:24;;;;;;;;;54.25;43.75;;;;;30.22;41.54;100677.50;5077426;28;45521;-68